Ana Sayfa
METAR-TAF:

METAR-TAF

Havaalanları :

Bamako, Mali

Enlem: 12-32N, Boylam: 007-57W, yükseklik: 380 m

Güncel hava durumu gözlemi

Rapor saat 10:00 UTC de 46 dakika önce yapıldı.
Rüzgar doğu/kuzeydoğudan 8 kt
Sıcaklık 29°C
Nem 22%
Basınç 1016 hPa
Görüş mesafesi: 4000 m
yaygın toz

METAR: GABS 221000Z 06008KT 4000 DU NSC 29/05 Q1016 TEMPO 6000

Saat: 10:46 (10:46 UTC)

Tahmin

Rapor saat 05:00 UTC de 5 saat ve 46 dakika önce yapıldı.
Ayın 22'si saat 06 UTC'den ayın 23'si saat 12 UTC'ye kadar geçerli Tahmin
Rüzgar doğu/kuzeydoğudan 8 kt ve 18 kt'a kadar ani rüzgarlar
Görüş mesafesi: 6000 m
Geçici
ayın 22'si saat 06 UTC'den ayın 22'si saat 12 UTC'ye kadar
Görüş mesafesi: 4000 m
yaygın toz
Geçici
ayın 23'si saat 06 UTC'den ayın 23'si saat 12 UTC'ye kadar
Görüş mesafesi: 4000 m
yaygın toz

TAF: GABS 220500Z 2206/2312 06008G18KT 6000 NSC TEMPO 2206/2212 4000 DU TEMPO 2306/2312 4000 DU

4.000'den fazla havaalanı için hava durumu gözlemleri ve tahminleri (METAR ve TAF raporları).

Kullanılabilir istasyonlar harita üzerinde sarı ve kırmızı noktalarla gösterilir.

İstasyonun adını görmek için fareyi noktanın üzerinde gezdirin.

Sonrasında hava gözlem ve tahminlerini görmek için tıklayın.

Haritayı değiştirmek için: yaklaştırmak için siyah artı işaretli yeşil düğmeye ve uzaklaştırmak için de eksi işaretli düğmeye hızla tıklayın; bitişik haritalar için yeşil okları kullanın.


METAR-TAF: